createdAt,value
2019-04-03T00:02:36.144Z,29.40
2019-04-03T00:07:43.463Z,29.50
2019-04-03T00:12:51.252Z,29.60
2019-04-03T00:17:58.848Z,29.50
2019-04-03T00:23:06.544Z,29.70
2019-04-03T00:28:13.983Z,29.80
2019-04-03T00:33:23.278Z,30.00
2019-04-03T00:38:30.927Z,30.00
2019-04-03T00:43:38.867Z,30.10
2019-04-03T00:48:46.311Z,30.10
2019-04-03T00:53:54.091Z,30.10
2019-04-03T00:59:01.693Z,30.20
2019-04-03T01:04:10.246Z,30.30
2019-04-03T01:09:18.150Z,30.30
2019-04-03T01:14:25.952Z,30.40
2019-04-03T01:19:36.141Z,30.50
2019-04-03T01:24:42.954Z,30.50
2019-04-03T01:29:50.659Z,30.60
2019-04-03T01:34:58.341Z,30.70
2019-04-03T01:40:07.749Z,30.70
2019-04-03T01:45:15.138Z,30.90
2019-04-03T01:50:23.028Z,30.90
2019-04-03T01:55:30.838Z,30.90
2019-04-03T02:00:38.548Z,31.00
2019-04-03T02:05:47.743Z,31.20
2019-04-03T02:10:55.259Z,31.20
2019-04-03T02:16:03.740Z,31.20
2019-04-03T02:21:11.532Z,31.30
2019-04-03T02:26:19.361Z,31.50
2019-04-03T02:31:27.114Z,31.40
2019-04-03T02:36:35.053Z,31.30
2019-04-03T02:41:42.462Z,31.60
2019-04-03T02:46:50.025Z,31.80
2019-04-03T02:51:57.945Z,31.80
2019-04-03T02:57:05.854Z,31.90
2019-04-03T03:02:14.632Z,31.90
2019-04-03T03:07:22.240Z,32.10
2019-04-03T03:12:29.861Z,32.10
2019-04-03T03:17:38.090Z,32.40
2019-04-03T03:22:49.609Z,32.70
2019-04-03T03:27:55.109Z,32.80
2019-04-03T03:33:24.887Z,33.00
2019-04-03T03:38:11.858Z,33.00
2019-04-03T03:43:19.266Z,33.30
2019-04-03T03:48:26.802Z,33.40
2019-04-03T03:53:34.881Z,33.50
2019-04-03T03:58:44.606Z,33.60
2019-04-03T04:03:52.050Z,33.50
2019-04-03T05:48:21.480Z,36.00
2019-04-03T05:53:33.319Z,36.20
2019-04-03T05:58:53.999Z,36.20
2019-04-03T06:03:54.237Z,36.20
